Time;durP1;ratioP1;P1;durP2;ratioP2;P2;SDS_P1;SDS_P2;PMS_P1;PMS_P2;Temp;Humidity;BMP_temperature;BMP_pressure;BME280_temperature;BME280_humidity;BME280_pressure;Samples;Min_cycle;Max_cycle;Signal;HPM_P1;HPM_P2
2021/05/11 00:02:06;;;;;;;2.93;2.63;;;;;;;;;;5060369;28;20231;-61
2021/05/11 00:04:31;;;;;;;3.07;2.83;;;;;;;;;;5071182;28;20303;-61
2021/05/11 00:06:56;;;;;;;3.37;2.70;;;;;;;;;;5063104;28;20239;-63
2021/05/11 00:09:21;;;;;;;5.50;3.00;;;;;;;;;;5067177;28;20229;-61
2021/05/11 00:11:47;;;;;;;3.57;2.30;;;;;;;;;;5069592;28;20308;-62
2021/05/11 00:14:12;;;;;;;2.23;1.93;;;;;;;;;;5066516;28;20247;-62
2021/05/11 00:16:37;;;;;;;3.70;1.93;;;;;;;;;;5062631;28;20235;-62
2021/05/11 00:19:06;;;;;;;2.50;2.30;;;;;;;;;;5067754;28;20217;-62
2021/05/11 00:21:32;;;;;;;4.40;2.27;;;;;;;;;;5070068;28;20232;-62
2021/05/11 00:23:57;;;;;;;5.40;3.53;;;;;;;;;;5065445;28;20893;-63
2021/05/11 00:26:22;;;;;;;5.37;2.60;;;;;;;;;;5061841;28;20225;-62
2021/05/11 00:28:48;;;;;;;2.67;2.47;;;;;;;;;;5066991;28;20430;-62
2021/05/11 00:31:14;;;;;;;4.43;2.60;;;;;;;;;;5070342;28;20221;-62
2021/05/11 00:33:39;;;;;;;2.53;2.23;;;;;;;;;;5067240;28;20660;-62
2021/05/11 00:36:05;;;;;;;3.37;2.20;;;;;;;;;;5057931;28;20233;-60
2021/05/11 00:38:30;;;;;;;2.77;2.37;;;;;;;;;;5069508;28;20232;-61
2021/05/11 00:40:55;;;;;;;4.63;2.60;;;;;;;;;;5062229;28;20222;-61
2021/05/11 00:43:20;;;;;;;2.50;2.30;;;;;;;;;;5068138;28;20627;-61
2021/05/11 00:45:46;;;;;;;4.13;2.40;;;;;;;;;;5069282;28;20294;-62
2021/05/11 00:48:11;;;;;;;3.27;2.00;;;;;;;;;;5064056;28;20252;-62
2021/05/11 00:50:36;;;;;;;4.40;2.80;;;;;;;;;;5062113;28;20233;-62
2021/05/11 00:53:02;;;;;;;3.33;2.60;;;;;;;;;;5068558;28;20303;-61
2021/05/11 00:55:28;;;;;;;2.50;2.30;;;;;;;;;;5057787;28;20559;-61
2021/05/11 00:57:53;;;;;;;3.40;2.37;;;;;;;;;;5065514;28;20256;-61
2021/05/11 01:00:19;;;;;;;3.10;2.27;;;;;;;;;;5060300;28;20476;-61
2021/05/11 01:02:45;;;;;;;3.80;3.10;;;;;;;;;;5068851;28;20221;-62
2021/05/11 01:05:11;;;;;;;4.17;2.40;;;;;;;;;;5065699;28;20542;-62
2021/05/11 01:07:36;;;;;;;9.13;8.10;;;;;;;;;;5061946;28;20225;-62
2021/05/11 01:10:02;;;;;;;9.23;8.03;;;;;;;;;;5065574;28;20491;-61
2021/05/11 01:12:28;;;;;;;9.30;6.67;;;;;;;;;;5069084;28;20236;-62
2021/05/11 01:14:53;;;;;;;9.67;8.67;;;;;;;;;;5064995;28;20466;-62
2021/05/11 01:17:28;;;;;;;7.27;5.30;;;;;;;;;;5062141;28;20252;-62
2021/05/11 01:19:58;;;;;;;12.63;11.33;;;;;;;;;;5064249;28;20300;-62
2021/05/11 01:25:14;;;;;;;8.37;6.93;;;;;;;;;;5068851;28;20519;-62
2021/05/11 01:27:52;;;;;;;7.47;5.03;;;;;;;;;;5063437;28;20494;-62
2021/05/11 01:30:43;;;;;;;7.87;7.03;;;;;;;;;;5060765;28;20512;-62
2021/05/11 01:47:07;;;;;;;7.17;6.43;;;;;;;;;;5061322;28;20551;-61
2021/05/11 01:50:00;;;;;;;8.40;6.37;;;;;;;;;;5060983;28;20460;-62
2021/05/11 01:52:43;;;;;;;9.27;7.77;;;;;;;;;;5064455;28;20589;-62
2021/05/11 01:55:23;;;;;;;6.20;4.73;;;;;;;;;;5067824;28;20475;-62
2021/05/11 02:22:40;;;;;;;10.47;8.33;;;;;;;;;;5059912;28;20474;-62
2021/05/11 02:25:06;;;;;;;9.83;6.00;;;;;;;;;;5063492;28;20551;-62
2021/05/11 02:27:32;;;;;;;6.57;5.97;;;;;;;;;;5067190;28;20928;-61
2021/05/11 02:29:57;;;;;;;18.90;15.87;;;;;;;;;;5064286;28;20531;-63
2021/05/11 02:32:22;;;;;;;7.23;5.20;;;;;;;;;;5060275;28;20223;-60
2021/05/11 02:34:48;;;;;;;11.97;9.70;;;;;;;;;;5064002;28;20232;-62
2021/05/11 02:37:13;;;;;;;8.40;6.87;;;;;;;;;;5052913;28;20214;-62
2021/05/11 02:39:38;;;;;;;4.97;4.00;;;;;;;;;;5063933;28;20212;-62
2021/05/11 02:42:07;;;;;;;4.60;3.53;;;;;;;;;;5060603;28;20219;-63
2021/05/11 02:44:40;;;;;;;4.73;3.20;;;;;;;;;;5066214;28;20699;-63
2021/05/11 02:47:06;;;;;;;13.43;11.90;;;;;;;;;;5073069;28;20951;-62
2021/05/11 02:49:31;;;;;;;4.80;4.30;;;;;;;;;;5073483;28;20488;-62
2021/05/11 02:51:56;;;;;;;5.80;5.20;;;;;;;;;;5059469;28;20303;-62
2021/05/11 02:54:21;;;;;;;8.70;7.80;;;;;;;;;;5073562;28;20216;-63
2021/05/11 02:56:47;;;;;;;9.37;8.47;;;;;;;;;;5067838;28;20224;-63
2021/05/11 02:59:12;;;;;;;8.10;5.77;;;;;;;;;;5064105;28;20216;-63
2021/05/11 03:01:37;;;;;;;8.07;6.40;;;;;;;;;;5063013;28;20306;-63
2021/05/11 03:04:03;;;;;;;5.40;3.17;;;;;;;;;;5063307;28;20225;-63
2021/05/11 03:06:28;;;;;;;5.60;4.93;;;;;;;;;;5065606;28;20231;-63
2021/05/11 03:08:53;;;;;;;12.20;9.70;;;;;;;;;;5064243;28;20228;-64
2021/05/11 03:11:19;;;;;;;6.57;5.20;;;;;;;;;;5059838;28;20295;-63
2021/05/11 03:13:45;;;;;;;4.03;3.63;;;;;;;;;;5063727;28;20212;-63
2021/05/11 03:16:10;;;;;;;5.90;5.40;;;;;;;;;;5067038;28;20220;-63
2021/05/11 03:18:35;;;;;;;7.77;3.63;;;;;;;;;;5063620;28;20797;-64
2021/05/11 03:21:00;;;;;;;5.00;3.03;;;;;;;;;;5070302;28;20274;-64
2021/05/11 03:23:26;;;;;;;9.00;5.77;;;;;;;;;;5045827;28;20217;-63
2021/05/11 03:25:51;;;;;;;6.43;5.83;;;;;;;;;;5060184;28;20307;-64
2021/05/11 03:28:16;;;;;;;7.50;4.00;;;;;;;;;;5062911;28;20680;-63
2021/05/11 03:30:43;;;;;;;7.40;4.40;;;;;;;;;;5066029;28;20247;-63
2021/05/11 03:33:09;;;;;;;7.03;5.10;;;;;;;;;;5063214;28;20212;-63
2021/05/11 03:35:35;;;;;;;5.50;5.00;;;;;;;;;;5055344;28;20456;-63
2021/05/11 03:38:00;;;;;;;10.10;8.93;;;;;;;;;;5063243;28;20473;-63
2021/05/11 03:40:25;;;;;;;5.13;4.20;;;;;;;;;;5058569;28;20221;-63
2021/05/11 03:42:53;;;;;;;7.10;6.50;;;;;;;;;;5063819;28;20285;-64
2021/05/11 03:45:20;;;;;;;5.23;4.73;;;;;;;;;;5066187;28;20217;-63
2021/05/11 03:47:47;;;;;;;8.63;6.63;;;;;;;;;;5062315;28;20466;-63
2021/05/11 03:50:14;;;;;;;3.37;3.07;;;;;;;;;;5059692;28;20459;-63
2021/05/11 03:52:40;;;;;;;6.43;5.30;;;;;;;;;;5062079;28;20859;-64
2021/05/11 03:55:05;;;;;;;4.60;4.20;;;;;;;;;;5069527;28;20450;-63
2021/05/11 03:57:31;;;;;;;4.67;4.13;;;;;;;;;;5062221;28;20232;-63
2021/05/11 03:59:56;;;;;;;4.13;3.80;;;;;;;;;;5065577;28;20225;-63
2021/05/11 04:02:21;;;;;;;6.03;5.07;;;;;;;;;;5052856;28;20354;-64
2021/05/11 04:04:46;;;;;;;4.80;4.30;;;;;;;;;;5059886;28;20521;-63
2021/05/11 04:07:14;;;;;;;6.97;4.43;;;;;;;;;;5067032;28;20308;-63
2021/05/11 04:09:55;;;;;;;6.00;4.87;;;;;;;;;;5069962;28;20712;-62
2021/05/11 04:12:45;;;;;;;5.37;4.87;;;;;;;;;;5068691;28;20478;-62
2021/05/11 04:17:55;;;;;;;6.50;5.23;;;;;;;;;;5063200;28;20473;-63
2021/05/11 04:20:20;;;;;;;6.53;4.80;;;;;;;;;;5064688;28;20463;-63
2021/05/11 04:22:46;;;;;;;4.27;3.87;;;;;;;;;;5070083;28;20259;-63
2021/05/11 04:25:11;;;;;;;9.43;7.30;;;;;;;;;;5067688;28;20660;-63
2021/05/11 04:27:37;;;;;;;9.33;7.40;;;;;;;;;;5062951;28;20220;-62
2021/05/11 04:30:04;;;;;;;8.80;6.93;;;;;;;;;;5064721;28;20248;-63
2021/05/11 04:32:29;;;;;;;6.30;5.40;;;;;;;;;;5064863;28;20273;-63
2021/05/11 04:34:55;;;;;;;8.00;6.17;;;;;;;;;;5065263;28;20471;-63
2021/05/11 04:37:20;;;;;;;5.20;4.80;;;;;;;;;;5059988;28;20688;-63
2021/05/11 04:39:45;;;;;;;5.73;5.23;;;;;;;;;;5065633;28;20221;-63
2021/05/11 04:42:11;;;;;;;6.07;5.43;;;;;;;;;;5069326;28;20711;-63
2021/05/11 04:44:37;;;;;;;5.53;4.37;;;;;;;;;;5066841;28;20217;-63
2021/05/11 04:47:17;;;;;;;4.50;4.10;;;;;;;;;;5061497;28;20224;-63
2021/05/11 04:49:42;;;;;;;5.80;5.20;;;;;;;;;;5063353;28;20486;-63
2021/05/11 04:52:08;;;;;;;6.40;5.77;;;;;;;;;;5069146;28;20459;-63
2021/05/11 04:54:33;;;;;;;8.17;5.73;;;;;;;;;;5068013;28;20243;-63
2021/05/11 04:56:59;;;;;;;7.27;5.90;;;;;;;;;;5061268;28;20554;-63
2021/05/11 04:59:24;;;;;;;5.47;4.97;;;;;;;;;;5061965;28;21488;-63
2021/05/11 05:01:52;;;;;;;7.50;5.33;;;;;;;;;;5057918;28;20474;-63
2021/05/11 05:04:18;;;;;;;5.87;5.37;;;;;;;;;;5058644;28;20224;-63
2021/05/11 05:06:43;;;;;;;5.23;4.83;;;;;;;;;;5066820;28;20558;-63
2021/05/11 05:09:08;;;;;;;6.77;6.10;;;;;;;;;;5069121;28;20572;-64
2021/05/11 05:11:39;;;;;;;5.80;5.30;;;;;;;;;;5064671;28;20236;-63
2021/05/11 05:14:04;;;;;;;7.10;5.13;;;;;;;;;;5062189;28;20514;-63
2021/05/11 05:16:31;;;;;;;6.30;5.77;;;;;;;;;;5064495;28;20466;-63
2021/05/11 05:18:56;;;;;;;6.23;5.23;;;;;;;;;;5069313;28;20250;-63
2021/05/11 05:21:22;;;;;;;7.67;5.30;;;;;;;;;;5064101;28;20463;-62
2021/05/11 05:23:49;;;;;;;6.17;5.57;;;;;;;;;;5062339;28;20309;-63
2021/05/11 05:26:19;;;;;;;6.77;5.73;;;;;;;;;;5065923;28;20231;-63
2021/05/11 05:28:44;;;;;;;5.53;5.03;;;;;;;;;;5068100;28;20466;-63
2021/05/11 05:31:10;;;;;;;6.10;5.27;;;;;;;;;;5060105;28;20533;-63
2021/05/11 05:33:37;;;;;;;9.40;7.70;;;;;;;;;;5068811;28;20220;-62
2021/05/11 05:36:03;;;;;;;10.60;8.23;;;;;;;;;;5054898;28;20233;-62
2021/05/11 05:38:29;;;;;;;8.73;7.00;;;;;;;;;;5056975;28;20792;-64
2021/05/11 05:41:08;;;;;;;7.80;7.10;;;;;;;;;;5064650;28;20467;-63
2021/05/11 05:43:33;;;;;;;6.30;5.70;;;;;;;;;;5061677;28;20220;-64
2021/05/11 05:45:59;;;;;;;6.20;5.70;;;;;;;;;;5064104;28;20525;-63
2021/05/11 05:48:24;;;;;;;6.73;5.70;;;;;;;;;;5066775;28;20244;-62
2021/05/11 05:50:56;;;;;;;7.97;5.30;;;;;;;;;;5064885;28;20220;-63
2021/05/11 05:53:24;;;;;;;6.17;5.67;;;;;;;;;;5061067;28;20562;-63
2021/05/11 05:55:50;;;;;;;5.43;4.30;;;;;;;;;;5063198;28;20460;-63
2021/05/11 05:58:15;;;;;;;6.63;5.33;;;;;;;;;;5059129;28;20790;-63
2021/05/11 06:00:41;;;;;;;5.33;4.77;;;;;;;;;;5052576;28;20667;-64
2021/05/11 06:03:16;;;;;;;5.70;5.17;;;;;;;;;;5059635;28;20533;-63
2021/05/11 06:05:42;;;;;;;5.67;5.23;;;;;;;;;;5067909;28;20216;-64
2021/05/11 06:08:07;;;;;;;6.43;5.40;;;;;;;;;;5062154;28;20478;-64
2021/05/11 06:10:32;;;;;;;7.13;4.90;;;;;;;;;;5060525;28;20244;-63
2021/05/11 06:13:08;;;;;;;9.60;5.20;;;;;;;;;;5067458;28;20221;-64
2021/05/11 06:18:18;;;;;;;6.23;5.73;;;;;;;;;;5065088;28;20466;-63
2021/05/11 06:20:44;;;;;;;8.30;5.50;;;;;;;;;;5060964;28;20463;-63
2021/05/11 06:23:09;;;;;;;6.00;5.00;;;;;;;;;;5063282;28;20232;-63
2021/05/11 06:25:34;;;;;;;5.60;4.37;;;;;;;;;;5067209;28;20229;-63
2021/05/11 06:28:01;;;;;;;6.50;4.93;;;;;;;;;;5064984;28;20594;-64
2021/05/11 06:30:26;;;;;;;5.87;5.13;;;;;;;;;;5060347;28;20224;-63
2021/05/11 06:32:51;;;;;;;10.47;5.90;;;;;;;;;;5067653;28;20470;-63
2021/05/11 06:35:17;;;;;;;7.60;5.77;;;;;;;;;;5056656;28;20237;-62
2021/05/11 06:37:42;;;;;;;5.57;4.60;;;;;;;;;;5056212;28;20229;-63
2021/05/11 06:40:08;;;;;;;6.10;4.90;;;;;;;;;;5067446;28;20363;-63
2021/05/11 06:42:36;;;;;;;8.23;5.63;;;;;;;;;;5064061;28;20289;-63
2021/05/11 06:45:12;;;;;;;5.53;5.03;;;;;;;;;;5059527;28;20216;-63
2021/05/11 06:50:40;;;;;;;8.10;6.80;;;;;;;;;;5049132;28;20512;-63
2021/05/11 06:55:44;;;;;;;10.13;5.90;;;;;;;;;;5062994;28;20486;-62
2021/05/11 06:58:10;;;;;;;7.57;5.93;;;;;;;;;;5065172;28;20459;-63
2021/05/11 07:00:35;;;;;;;6.80;5.90;;;;;;;;;;5057561;28;20923;-63
2021/05/11 07:03:01;;;;;;;6.00;5.50;;;;;;;;;;5057235;28;20469;-62
2021/05/11 07:05:43;;;;;;;6.97;5.80;;;;;;;;;;5055108;28;20228;-64
2021/05/11 07:08:16;;;;;;;7.00;6.40;;;;;;;;;;5047355;28;20540;-64
2021/05/11 07:10:46;;;;;;;7.07;5.30;;;;;;;;;;5059657;28;20476;-63
2021/05/11 07:13:12;;;;;;;5.87;5.10;;;;;;;;;;5065078;28;20474;-64
2021/05/11 07:15:40;;;;;;;7.63;5.27;;;;;;;;;;5065495;28;20459;-63
2021/05/11 07:18:07;;;;;;;6.10;5.50;;;;;;;;;;5062597;28;20213;-64
2021/05/11 07:20:32;;;;;;;5.30;4.80;;;;;;;;;;5059540;28;20464;-63
2021/05/11 07:22:58;;;;;;;8.07;5.30;;;;;;;;;;5064372;28;20471;-63
2021/05/11 07:25:26;;;;;;;7.07;6.37;;;;;;;;;;5066989;28;20288;-63
2021/05/11 07:28:08;;;;;;;6.43;5.80;;;;;;;;;;5062115;28;20232;-64
2021/05/11 07:30:33;;;;;;;6.77;6.07;;;;;;;;;;5059616;28;20550;-63
2021/05/11 07:32:58;;;;;;;5.97;5.47;;;;;;;;;;5066421;28;20534;-64
2021/05/11 07:35:26;;;;;;;6.80;6.03;;;;;;;;;;5055495;28;20283;-63
2021/05/11 07:37:51;;;;;;;8.03;6.30;;;;;;;;;;5054969;28;20229;-63
2021/05/11 07:40:17;;;;;;;7.60;5.03;;;;;;;;;;5070847;28;20486;-64
2021/05/11 07:42:42;;;;;;;7.07;5.63;;;;;;;;;;5067652;28;20307;-64
2021/05/11 07:45:10;;;;;;;5.93;5.43;;;;;;;;;;5063692;28;20220;-63
2021/05/11 07:50:50;;;;;;;6.87;5.70;;;;;;;;;;5073776;28;20469;-64
2021/05/11 08:09:48;;;;;;;7.40;5.83;;;;;;;;;;5061323;28;20791;-61
2021/05/11 08:14:45;;;;;;;5.80;5.20;;;;;;;;;;5051671;28;21006;-63
2021/05/11 08:17:10;;;;;;;5.80;5.17;;;;;;;;;;5062876;28;20521;-63
2021/05/11 08:19:48;;;;;;;7.23;5.40;;;;;;;;;;5068082;28;20471;-63
2021/05/11 08:27:46;;;;;;;6.00;5.00;;;;;;;;;;5053853;28;20754;-63
2021/05/11 08:30:12;;;;;;;6.70;5.83;;;;;;;;;;5062623;28;20444;-62
2021/05/11 08:32:38;;;;;;;6.07;5.50;;;;;;;;;;5060922;28;20494;-63
2021/05/11 08:35:06;;;;;;;5.70;5.20;;;;;;;;;;5059835;28;20499;-62
2021/05/11 08:37:31;;;;;;;6.73;5.00;;;;;;;;;;5057003;28;20218;-62
2021/05/11 08:39:56;;;;;;;6.47;5.40;;;;;;;;;;5051228;28;20474;-63
2021/05/11 08:42:21;;;;;;;5.77;4.97;;;;;;;;;;5056033;28;20245;-63
2021/05/11 08:44:47;;;;;;;9.50;6.37;;;;;;;;;;5069915;28;20290;-63
2021/05/11 08:47:12;;;;;;;8.87;7.40;;;;;;;;;;5063240;28;20310;-63
2021/05/11 08:49:40;;;;;;;6.37;5.60;;;;;;;;;;5061482;28;20308;-63
2021/05/11 08:52:23;;;;;;;5.93;5.43;;;;;;;;;;5066035;28;20217;-62
2021/05/11 08:55:04;;;;;;;9.27;5.17;;;;;;;;;;5069575;28;20459;-62
2021/05/11 09:06:13;;;;;;;10.97;9.57;;;;;;;;;;5068461;28;20792;-64
2021/05/11 09:25:13;;;;;;;21.93;19.63;;;;;;;;;;5062713;28;20466;-62
2021/05/11 09:28:00;;;;;;;108.60;97.83;;;;;;;;;;5062491;28;20463;-63
2021/05/11 09:30:53;;;;;;;146.57;131.17;;;;;;;;;;5060802;28;20459;-64
2021/05/11 09:33:36;;;;;;;26.77;22.07;;;;;;;;;;5063106;28;20488;-63
2021/05/11 10:01:35;;;;;;;7.83;6.73;;;;;;;;;;5057708;28;20457;-63
2021/05/11 10:36:21;;;;;;;67.30;60.07;;;;;;;;;;5051562;28;20531;-63
2021/05/11 10:39:05;;;;;;;18.83;16.87;;;;;;;;;;5057917;28;20474;-64
2021/05/11 10:41:47;;;;;;;6.87;6.07;;;;;;;;;;5064860;28;20471;-63
2021/05/11 10:47:01;;;;;;;52.20;47.00;;;;;;;;;;5059840;28;20926;-63
2021/05/11 10:49:26;;;;;;;8.80;7.60;;;;;;;;;;5060051;28;20488;-63
2021/05/11 10:52:17;;;;;;;39.37;35.27;;;;;;;;;;5067350;28;20494;-63
2021/05/11 10:54:51;;;;;;;27.23;21.57;;;;;;;;;;5061433;28;20225;-63
2021/05/11 10:57:37;;;;;;;8.93;8.13;;;;;;;;;;5063583;28;20471;-63
2021/05/11 11:00:39;;;;;;;43.03;38.97;;;;;;;;;;5025793;28;20472;-63
2021/05/11 11:03:20;;;;;;;41.87;37.80;;;;;;;;;;5035711;28;20456;-63
2021/05/11 11:05:49;;;;;;;48.80;44.23;;;;;;;;;;5044730;28;20582;-63
2021/05/11 11:08:31;;;;;;;10.20;9.20;;;;;;;;;;5031596;28;20504;-63
2021/05/11 11:11:20;;;;;;;18.17;16.30;;;;;;;;;;5047026;28;20796;-63
2021/05/11 11:13:53;;;;;;;25.67;23.17;;;;;;;;;;5045910;28;20939;-63
2021/05/11 11:16:19;;;;;;;38.70;34.83;;;;;;;;;;5041458;28;20464;-63
2021/05/11 11:18:45;;;;;;;44.83;40.43;;;;;;;;;;5039602;28;20580;-64
2021/05/11 11:23:49;;;;;;;16.03;14.20;;;;;;;;;;5046860;28;20935;-64
2021/05/11 11:26:14;;;;;;;23.60;21.47;;;;;;;;;;5041681;28;20454;-63
2021/05/11 11:28:40;;;;;;;24.23;21.87;;;;;;;;;;5039231;28;20959;-63
2021/05/11 11:31:25;;;;;;;48.43;43.90;;;;;;;;;;5043997;28;20214;-63
2021/05/11 11:33:50;;;;;;;36.70;33.03;;;;;;;;;;5038250;28;20676;-62
2021/05/11 11:36:33;;;;;;;9.07;8.17;;;;;;;;;;5047296;28;20468;-63
2021/05/11 11:39:00;;;;;;;8.90;8.03;;;;;;;;;;5031293;28;20226;-64
2021/05/11 11:41:26;;;;;;;11.90;8.70;;;;;;;;;;5046895;28;20468;-64
2021/05/11 11:43:52;;;;;;;35.53;32.33;;;;;;;;;;5040747;28;20546;-63
2021/05/11 11:46:27;;;;;;;9.43;7.93;;;;;;;;;;5038785;28;20630;-63
2021/05/11 11:49:05;;;;;;;14.40;13.20;;;;;;;;;;5044496;28;20308;-64
2021/05/11 11:51:32;;;;;;;9.40;8.40;;;;;;;;;;5046919;28;20546;-63
2021/05/11 11:54:04;;;;;;;9.77;8.80;;;;;;;;;;5043764;28;20535;-63
2021/05/11 11:57:44;;;;;;;24.03;22.10;;;;;;;;;;5039881;28;20833;-62
2021/05/11 11:59:22;;;;;;;8.30;7.00;;;;;;;;;;5039373;28;20464;-63
2021/05/11 12:01:55;;;;;;;42.07;38.67;;;;;;;;;;5035419;28;20777;-62
2021/05/11 12:04:20;;;;;;;12.33;11.17;;;;;;;;;;5041309;28;20274;-64
2021/05/11 12:06:48;;;;;;;17.60;16.20;;;;;;;;;;5043631;28;20948;-63
2021/05/11 12:09:14;;;;;;;21.50;19.70;;;;;;;;;;5045882;28;20687;-64
2021/05/11 12:11:39;;;;;;;8.43;7.50;;;;;;;;;;5043989;28;20459;-64
2021/05/11 12:14:04;;;;;;;14.67;9.30;;;;;;;;;;5022310;28;20561;-63
2021/05/11 12:16:30;;;;;;;21.70;19.80;;;;;;;;;;5043937;28;20275;-63
2021/05/11 12:22:04;;;;;;;11.90;11.00;;;;;;;;;;5042466;28;20689;-63
2021/05/11 12:24:31;;;;;;;6.53;5.00;;;;;;;;;;5044272;28;20465;-64
2021/05/11 12:27:16;;;;;;;6.50;5.60;;;;;;;;;;5042702;28;20529;-64
2021/05/11 12:30:01;;;;;;;27.57;18.63;;;;;;;;;;5046302;28;20669;-62
2021/05/11 12:32:27;;;;;;;8.70;7.75;;;;;;;;;;5041444;28;20220;-63
2021/05/11 12:35:12;;;;;;;7.30;6.60;;;;;;;;;;5043713;28;20224;-63
2021/05/11 12:37:50;;;;;;;6.95;6.28;;;;;;;;;;5029627;28;20672;-64
2021/05/11 12:42:48;;;;;;;8.35;7.43;;;;;;;;;;5050874;28;20259;-64
2021/05/11 12:45:16;;;;;;;7.82;7.13;;;;;;;;;;5044388;28;20229;-63
2021/05/11 12:47:52;;;;;;;6.25;5.28;;;;;;;;;;5046906;28;20231;-63
2021/05/11 12:50:27;;;;;;;6.45;5.85;;;;;;;;;;5051756;28;20232;-63
2021/05/11 12:52:53;;;;;;;11.70;10.35;;;;;;;;;;5052011;28;20220;-63
2021/05/11 12:58:26;;;;;;;8.10;7.15;;;;;;;;;;5039984;28;20222;-63
2021/05/11 13:01:00;;;;;;;6.03;5.57;;;;;;;;;;5042574;28;20231;-63
2021/05/11 13:04:09;;;;;;;6.88;6.28;;;;;;;;;;5042789;28;20216;-63
2021/05/11 13:15:04;;;;;;;6.15;5.68;;;;;;;;;;5043989;28;20613;-63
2021/05/11 13:17:09;;;;;;;5.70;5.10;;;;;;;;;;5045158;28;20231;-63
2021/05/11 13:23:04;;;;;;;10.37;9.47;;;;;;;;;;5044009;28;20374;-63
2021/05/11 13:32:48;;;;;;;8.23;6.93;;;;;;;;;;5041029;28;20231;-63
2021/05/11 13:35:13;;;;;;;7.33;6.47;;;;;;;;;;5040264;28;20483;-63
2021/05/11 13:37:38;;;;;;;7.30;6.70;;;;;;;;;;5038804;28;20796;-64
2021/05/11 13:40:06;;;;;;;10.03;9.03;;;;;;;;;;5050344;28;20216;-63
2021/05/11 13:42:31;;;;;;;6.27;5.77;;;;;;;;;;5047296;28;20227;-63
2021/05/11 13:44:57;;;;;;;5.87;5.10;;;;;;;;;;5043648;28;20312;-63
2021/05/11 13:47:22;;;;;;;7.13;4.90;;;;;;;;;;5048478;28;20217;-63
2021/05/11 13:49:52;;;;;;;5.83;5.33;;;;;;;;;;5050165;28;20553;-63
2021/05/11 13:52:17;;;;;;;5.67;5.13;;;;;;;;;;5047296;28;20221;-63
2021/05/11 13:54:43;;;;;;;13.90;12.73;;;;;;;;;;5055386;28;20777;-63
2021/05/11 14:02:34;;;;;;;7.50;6.90;;;;;;;;;;5054662;28;20228;-64
2021/05/11 14:05:00;;;;;;;7.43;6.83;;;;;;;;;;5051180;28;20599;-62
2021/05/11 14:07:25;;;;;;;7.17;6.47;;;;;;;;;;5053306;28;20481;-63
2021/05/11 14:09:50;;;;;;;6.40;5.90;;;;;;;;;;5054570;28;20244;-62
2021/05/11 14:12:15;;;;;;;6.53;5.80;;;;;;;;;;5053017;28;20256;-63
2021/05/11 14:14:41;;;;;;;6.27;5.50;;;;;;;;;;5054722;28;20315;-63
2021/05/11 14:17:06;;;;;;;10.20;9.40;;;;;;;;;;5054226;28;20229;-62
2021/05/11 14:19:31;;;;;;;5.80;4.70;;;;;;;;;;5054427;28;20240;-63
2021/05/11 14:21:57;;;;;;;8.47;7.70;;;;;;;;;;5053893;28;20213;-62
2021/05/11 14:24:23;;;;;;;5.23;4.60;;;;;;;;;;5054253;28;20266;-62
2021/05/11 14:26:49;;;;;;;10.63;9.83;;;;;;;;;;5054137;28;20479;-62
2021/05/11 14:29:14;;;;;;;7.67;5.47;;;;;;;;;;5053730;28;20460;-62
2021/05/11 14:31:39;;;;;;;7.17;6.43;;;;;;;;;;5054062;28;20236;-63
2021/05/11 14:34:05;;;;;;;8.30;7.50;;;;;;;;;;5053629;28;20343;-63
2021/05/11 14:36:31;;;;;;;7.97;7.30;;;;;;;;;;5053790;28;20232;-63
2021/05/11 14:38:56;;;;;;;7.50;6.90;;;;;;;;;;5053731;28;20448;-63
2021/05/11 14:41:21;;;;;;;9.90;6.57;;;;;;;;;;5054107;28;20600;-62
2021/05/11 14:43:47;;;;;;;7.10;5.10;;;;;;;;;;5053620;28;20217;-63
2021/05/11 14:46:12;;;;;;;7.10;5.63;;;;;;;;;;5053908;28;20271;-64
2021/05/11 14:48:38;;;;;;;8.10;7.30;;;;;;;;;;5053393;28;20225;-63
2021/05/11 14:51:05;;;;;;;10.10;9.27;;;;;;;;;;5052257;28;20296;-63
2021/05/11 14:53:31;;;;;;;6.23;5.33;;;;;;;;;;5040395;28;20487;-62
2021/05/11 14:55:57;;;;;;;8.83;8.13;;;;;;;;;;5050749;28;20517;-62
2021/05/11 14:58:22;;;;;;;6.50;5.90;;;;;;;;;;5041168;28;20459;-62
2021/05/11 15:00:48;;;;;;;5.83;5.33;;;;;;;;;;5050055;28;20504;-62
2021/05/11 15:03:14;;;;;;;7.30;6.60;;;;;;;;;;5051166;28;20711;-62
2021/05/11 15:05:40;;;;;;;9.33;8.57;;;;;;;;;;5048017;28;20221;-63
2021/05/11 15:08:06;;;;;;;7.40;6.70;;;;;;;;;;5052973;28;20460;-63
2021/05/11 15:10:32;;;;;;;6.50;5.90;;;;;;;;;;5053611;28;20466;-63
2021/05/11 15:12:57;;;;;;;6.73;6.13;;;;;;;;;;5051838;28;20262;-65
2021/05/11 15:15:22;;;;;;;6.10;5.37;;;;;;;;;;5043441;28;20241;-63
2021/05/11 15:20:14;;;;;;;8.07;7.10;;;;;;;;;;5052981;28;20225;-63
2021/05/11 15:22:40;;;;;;;8.50;6.70;;;;;;;;;;5053475;28;20229;-64
2021/05/11 15:25:06;;;;;;;6.90;6.30;;;;;;;;;;5052253;28;20486;-63
2021/05/11 15:27:32;;;;;;;7.70;6.83;;;;;;;;;;5053459;28;20519;-62
2021/05/11 15:29:58;;;;;;;7.97;6.70;;;;;;;;;;5052821;28;20464;-63
2021/05/11 15:32:49;;;;;;;7.13;6.47;;;;;;;;;;5053393;28;20448;-63
2021/05/11 15:35:15;;;;;;;7.30;6.60;;;;;;;;;;5052782;28;20624;-63
2021/05/11 15:37:42;;;;;;;11.27;7.30;;;;;;;;;;5053309;28;20456;-62
2021/05/11 15:40:11;;;;;;;7.10;6.47;;;;;;;;;;5052810;28;20452;-62
2021/05/11 15:42:36;;;;;;;8.33;6.50;;;;;;;;;;5052758;28;20475;-61
2021/05/11 15:45:03;;;;;;;7.50;6.90;;;;;;;;;;5031698;28;20460;-62
2021/05/11 15:47:28;;;;;;;7.60;6.93;;;;;;;;;;5031371;28;20218;-62
2021/05/11 15:49:54;;;;;;;6.60;5.93;;;;;;;;;;5031757;28;20472;-62
2021/05/11 15:52:19;;;;;;;7.23;6.60;;;;;;;;;;5031537;28;20263;-63
2021/05/11 15:54:44;;;;;;;6.43;5.77;;;;;;;;;;5031791;28;20209;-62
2021/05/11 15:57:10;;;;;;;10.87;6.87;;;;;;;;;;5032048;28;20225;-62
2021/05/11 15:59:35;;;;;;;6.70;6.10;;;;;;;;;;5034236;28;20671;-62
2021/05/11 16:02:00;;;;;;;8.43;7.53;;;;;;;;;;5056369;28;20213;-62
2021/05/11 16:04:26;;;;;;;6.83;6.20;;;;;;;;;;5057061;28;20224;-62
2021/05/11 16:06:52;;;;;;;7.77;6.50;;;;;;;;;;5056787;28;20219;-62
2021/05/11 16:09:17;;;;;;;6.33;5.73;;;;;;;;;;5056750;28;20460;-62
2021/05/11 16:11:42;;;;;;;7.23;6.30;;;;;;;;;;5057077;28;20295;-62
2021/05/11 16:14:07;;;;;;;7.70;6.63;;;;;;;;;;5056851;28;20274;-63
2021/05/11 16:16:33;;;;;;;6.83;6.23;;;;;;;;;;5057092;28;20271;-62
2021/05/11 16:18:59;;;;;;;7.60;6.80;;;;;;;;;;5056940;28;20316;-62
2021/05/11 16:21:24;;;;;;;7.13;6.43;;;;;;;;;;5056583;28;20668;-62
2021/05/11 16:23:51;;;;;;;7.33;6.67;;;;;;;;;;5056999;28;20459;-62
2021/05/11 16:26:16;;;;;;;8.00;7.40;;;;;;;;;;5056377;28;20209;-62
2021/05/11 16:28:42;;;;;;;8.73;7.53;;;;;;;;;;5056643;28;20525;-62
2021/05/11 16:31:07;;;;;;;8.20;7.50;;;;;;;;;;5051613;28;20206;-63
2021/05/11 16:33:32;;;;;;;9.23;8.30;;;;;;;;;;5036742;28;20218;-62
2021/05/11 16:35:57;;;;;;;7.70;7.00;;;;;;;;;;5051759;28;20308;-62
2021/05/11 16:38:23;;;;;;;8.33;7.43;;;;;;;;;;5056074;28;20217;-62
2021/05/11 16:40:49;;;;;;;8.93;7.10;;;;;;;;;;5056636;28;20275;-62
2021/05/11 16:43:15;;;;;;;8.03;7.37;;;;;;;;;;5056079;28;20221;-62
2021/05/11 16:45:40;;;;;;;8.43;7.53;;;;;;;;;;5056643;28;20295;-62
2021/05/11 16:48:06;;;;;;;8.57;7.87;;;;;;;;;;5055863;28;20494;-62
2021/05/11 16:50:34;;;;;;;8.53;7.73;;;;;;;;;;5056292;28;20220;-62
2021/05/11 16:53:01;;;;;;;8.53;7.40;;;;;;;;;;5055251;28;20232;-61
2021/05/11 16:55:28;;;;;;;9.10;7.00;;;;;;;;;;5054801;28;20451;-61
2021/05/11 16:57:53;;;;;;;9.03;8.23;;;;;;;;;;5056135;28;20563;-63
2021/05/11 17:00:21;;;;;;;8.60;7.30;;;;;;;;;;5055699;28;20546;-61
2021/05/11 17:02:46;;;;;;;10.43;6.60;;;;;;;;;;5056090;28;20620;-62
2021/05/11 17:05:12;;;;;;;8.90;8.10;;;;;;;;;;5055688;28;20463;-61
2021/05/11 17:07:37;;;;;;;8.20;7.37;;;;;;;;;;5047763;28;20293;-62
2021/05/11 17:10:04;;;;;;;8.80;7.80;;;;;;;;;;5036008;28;20256;-62
2021/05/11 17:12:30;;;;;;;8.43;7.73;;;;;;;;;;5034706;28;20604;-61
2021/05/11 17:14:55;;;;;;;8.53;7.73;;;;;;;;;;5035840;28;20513;-62
2021/05/11 17:17:21;;;;;;;8.83;7.93;;;;;;;;;;5035458;28;20476;-61
2021/05/11 17:19:46;;;;;;;7.77;7.07;;;;;;;;;;5035033;28;20224;-62
2021/05/11 17:22:13;;;;;;;7.80;7.13;;;;;;;;;;5035438;28;20297;-62
2021/05/11 17:24:38;;;;;;;7.83;7.03;;;;;;;;;;5035940;28;20224;-62
2021/05/11 17:27:03;;;;;;;7.77;7.07;;;;;;;;;;5035703;28;21008;-62
2021/05/11 17:29:28;;;;;;;13.27;7.77;;;;;;;;;;5035399;28;20226;-62
2021/05/11 17:31:54;;;;;;;8.50;7.70;;;;;;;;;;5034428;28;20561;-62
2021/05/11 17:34:19;;;;;;;8.13;7.33;;;;;;;;;;5036513;28;20222;-62
2021/05/11 17:36:44;;;;;;;8.87;7.30;;;;;;;;;;5055341;28;20292;-62
2021/05/11 17:39:10;;;;;;;6.80;6.20;;;;;;;;;;5054568;28;20221;-62
2021/05/11 17:41:35;;;;;;;8.73;7.80;;;;;;;;;;5055375;28;20213;-62
2021/05/11 17:44:01;;;;;;;6.90;6.30;;;;;;;;;;5055350;28;20236;-62
2021/05/11 17:46:26;;;;;;;6.73;6.07;;;;;;;;;;5054880;28;20299;-62
2021/05/11 17:48:51;;;;;;;8.43;7.50;;;;;;;;;;5054272;28;20217;-61
2021/05/11 17:51:17;;;;;;;6.67;6.10;;;;;;;;;;5054761;28;20260;-61
2021/05/11 17:53:43;;;;;;;9.83;6.73;;;;;;;;;;5055193;28;20213;-62
2021/05/11 17:56:08;;;;;;;7.33;6.70;;;;;;;;;;5054625;28;20213;-62
2021/05/11 17:58:34;;;;;;;7.10;6.50;;;;;;;;;;5055003;28;20529;-61
2021/05/11 18:00:59;;;;;;;7.33;6.37;;;;;;;;;;5054986;28;20244;-61
2021/05/11 18:03:25;;;;;;;5.90;5.40;;;;;;;;;;5054546;28;20223;-60
2021/05/11 18:05:50;;;;;;;6.93;6.30;;;;;;;;;;5054944;28;20221;-62
2021/05/11 18:08:17;;;;;;;6.90;6.30;;;;;;;;;;5041002;28;20464;-61
2021/05/11 18:10:42;;;;;;;7.70;7.00;;;;;;;;;;5034983;28;20222;-62